Time;durP1;ratioP1;P1;durP2;ratioP2;P2;SDS_P1;SDS_P2;PMS_P1;PMS_P2;Temp;Humidity;BMP_temperature;BMP_pressure;BME280_temperature;BME280_humidity;BME280_pressure;Samples;Min_cycle;Max_cycle;Signal;HPM_P1;HPM_P2
2022/03/11 00:01:28;;;;;;;;;;;5.40;97.40;;;;;;5056468;28;19924;-75
2022/03/11 00:03:54;;;;;;;;;;;5.40;97.50;;;;;;5054392;28;19931;-75
2022/03/11 00:06:40;;;;;;;;;;;5.40;97.10;;;;;;5054880;28;20055;-76
2022/03/11 00:09:06;;;;;;;;;;;5.40;97.40;;;;;;5037049;28;19924;-74
2022/03/11 00:11:33;;;;;;;;;;;5.40;97.30;;;;;;5054062;28;19943;-77
2022/03/11 00:14:00;;;;;;;;;;;5.30;98.40;;;;;;5037561;28;19931;-75
2022/03/11 00:16:26;;;;;;;;;;;5.20;98.80;;;;;;5035480;28;19932;-76
2022/03/11 00:18:53;;;;;;;;;;;5.20;99.30;;;;;;5038049;28;19928;-75
2022/03/11 00:21:19;;;;;;;;;;;5.20;99.20;;;;;;5035885;28;19925;-76
2022/03/11 00:23:46;;;;;;;;;;;5.20;99.80;;;;;;5041054;28;20386;-76
2022/03/11 00:26:12;;;;;;;;;;;5.00;99.90;;;;;;5071129;28;19935;-80
2022/03/11 00:28:39;;;;;;;;;;;5.00;99.90;;;;;;5067971;28;20291;-75
2022/03/11 00:31:06;;;;;;;;;;;4.90;99.90;;;;;;5050005;28;20314;-75
2022/03/11 00:33:32;;;;;;;;;;;4.90;99.90;;;;;;5061070;28;20720;-75
2022/03/11 00:35:59;;;;;;;;;;;4.90;99.90;;;;;;5046836;28;20368;-79
2022/03/11 00:38:25;;;;;;;;;;;4.80;99.90;;;;;;5042747;28;20364;-76
2022/03/11 00:40:56;;;;;;;;;;;4.80;99.90;;;;;;5063918;28;19978;-74
2022/03/11 00:43:22;;;;;;;;;;;4.70;99.90;;;;;;5065655;28;19924;-76
2022/03/11 00:45:49;;;;;;;;;;;4.70;99.90;;;;;;5061420;28;19924;-76
2022/03/11 00:48:15;;;;;;;;;;;4.70;99.90;;;;;;5039901;28;19925;-81
2022/03/11 00:50:42;;;;;;;;;;;4.60;99.90;;;;;;5056719;28;19925;-76
2022/03/11 00:53:08;;;;;;;;;;;4.50;99.90;;;;;;5062947;28;19924;-76
2022/03/11 00:55:35;;;;;;;;;;;4.50;99.90;;;;;;5057255;28;19935;-74
2022/03/11 00:58:01;;;;;;;;;;;4.60;99.90;;;;;;5054983;28;19932;-76
2022/03/11 01:00:28;;;;;;;;;;;4.60;99.90;;;;;;5039677;28;19924;-75
2022/03/11 01:02:54;;;;;;;;;;;4.50;99.90;;;;;;5060240;28;19925;-75
2022/03/11 01:05:22;;;;;;;;;;;4.40;99.90;;;;;;5054406;28;19929;-75
2022/03/11 01:07:48;;;;;;;;;;;4.40;99.90;;;;;;5060292;28;19928;-75
2022/03/11 01:10:15;;;;;;;;;;;4.40;99.90;;;;;;5048245;28;19932;-76
2022/03/11 01:12:42;;;;;;;;;;;4.40;99.90;;;;;;5065813;28;19925;-76
2022/03/11 01:15:09;;;;;;;;;;;4.40;99.90;;;;;;5044815;28;19932;-76
2022/03/11 01:17:35;;;;;;;;;;;4.40;99.90;;;;;;5042723;28;19924;-76
2022/03/11 01:20:03;;;;;;;;;;;4.40;99.90;;;;;;5052375;28;19928;-76
2022/03/11 01:22:30;;;;;;;;;;;4.40;99.90;;;;;;5050312;28;19924;-76
2022/03/11 01:24:56;;;;;;;;;;;4.50;99.90;;;;;;5054151;28;19932;-75
2022/03/11 01:27:23;;;;;;;;;;;4.40;99.90;;;;;;5043915;28;19932;-76
2022/03/11 01:29:49;;;;;;;;;;;4.50;99.90;;;;;;5041572;28;19929;-76
2022/03/11 01:32:16;;;;;;;;;;;4.40;99.90;;;;;;5049159;28;19924;-76
2022/03/11 01:34:43;;;;;;;;;;;4.40;99.90;;;;;;5048098;28;19939;-76
2022/03/11 01:37:09;;;;;;;;;;;4.50;99.90;;;;;;5062800;28;19925;-76
2022/03/11 01:39:36;;;;;;;;;;;4.50;99.90;;;;;;5064366;28;19924;-76
2022/03/11 01:42:02;;;;;;;;;;;4.50;99.90;;;;;;5046633;28;19931;-75
2022/03/11 01:44:29;;;;;;;;;;;4.50;99.90;;;;;;5061293;28;19925;-74
2022/03/11 01:46:55;;;;;;;;;;;4.50;99.90;;;;;;5049450;28;19924;-74
2022/03/11 01:49:22;;;;;;;;;;;4.40;99.90;;;;;;5054765;28;19954;-77
2022/03/11 01:51:49;;;;;;;;;;;4.30;99.90;;;;;;5062671;28;19924;-74
2022/03/11 01:54:15;;;;;;;;;;;4.30;99.90;;;;;;5037984;28;19925;-75
2022/03/11 01:56:42;;;;;;;;;;;4.20;99.90;;;;;;5056883;28;19929;-77
2022/03/11 01:59:11;;;;;;;;;;;4.20;99.90;;;;;;5069021;28;19925;-75
2022/03/11 02:01:37;;;;;;;;;;;4.20;99.90;;;;;;5041199;28;19932;-76
2022/03/11 02:04:04;;;;;;;;;;;4.10;99.90;;;;;;5038992;28;19939;-75
2022/03/11 02:06:30;;;;;;;;;;;4.10;99.90;;;;;;5038245;28;19925;-76
2022/03/11 02:08:58;;;;;;;;;;;4.10;99.90;;;;;;5037378;28;19932;-75
2022/03/11 02:11:24;;;;;;;;;;;4.10;99.90;;;;;;5037804;28;19929;-76
2022/03/11 02:13:51;;;;;;;;;;;4.10;99.90;;;;;;5062504;28;20011;-74
2022/03/11 02:16:17;;;;;;;;;;;4.10;99.90;;;;;;5061776;28;19925;-76
2022/03/11 02:18:44;;;;;;;;;;;4.00;99.90;;;;;;5050236;28;19933;-75
2022/03/11 02:21:11;;;;;;;;;;;4.00;99.90;;;;;;5053423;28;20342;-76
2022/03/11 02:23:37;;;;;;;;;;;4.10;99.90;;;;;;5052860;28;20383;-80
2022/03/11 02:26:04;;;;;;;;;;;4.00;99.90;;;;;;5045649;28;20279;-76
2022/03/11 02:28:30;;;;;;;;;;;4.00;99.90;;;;;;5053504;28;20390;-76
2022/03/11 02:30:57;;;;;;;;;;;4.00;99.90;;;;;;5064578;28;20298;-74
2022/03/11 02:33:24;;;;;;;;;;;4.00;99.90;;;;;;5060947;28;19981;-81
2022/03/11 02:35:50;;;;;;;;;;;3.90;99.90;;;;;;5063223;28;19925;-76
2022/03/11 02:38:17;;;;;;;;;;;4.00;99.90;;;;;;5063006;28;19924;-76
2022/03/11 02:40:43;;;;;;;;;;;3.90;99.90;;;;;;5060401;28;19929;-75
2022/03/11 02:43:10;;;;;;;;;;;3.90;99.90;;;;;;5055635;28;19931;-75
2022/03/11 02:45:36;;;;;;;;;;;3.90;99.90;;;;;;5049684;28;19948;-75
2022/03/11 02:48:03;;;;;;;;;;;3.90;99.90;;;;;;5057401;28;19925;-75
2022/03/11 02:50:30;;;;;;;;;;;3.90;99.90;;;;;;5054360;28;19933;-76
2022/03/11 02:52:56;;;;;;;;;;;3.90;99.90;;;;;;5037236;28;19929;-75
2022/03/11 02:55:23;;;;;;;;;;;3.90;99.90;;;;;;5055525;28;19924;-76
2022/03/11 02:57:49;;;;;;;;;;;3.90;99.90;;;;;;5054722;28;19971;-75
2022/03/11 03:00:16;;;;;;;;;;;3.80;99.90;;;;;;5049992;28;19925;-75
2022/03/11 03:02:42;;;;;;;;;;;3.80;99.90;;;;;;5064094;28;19931;-75
2022/03/11 03:05:09;;;;;;;;;;;3.70;99.90;;;;;;5046779;28;19924;-74
2022/03/11 03:07:35;;;;;;;;;;;3.60;99.90;;;;;;5048782;28;19935;-76
2022/03/11 03:10:02;;;;;;;;;;;3.50;99.90;;;;;;5042795;28;19925;-76
2022/03/11 03:12:28;;;;;;;;;;;3.50;99.90;;;;;;5061794;28;20007;-77
2022/03/11 03:14:55;;;;;;;;;;;3.40;99.90;;;;;;5054434;28;19936;-75
2022/03/11 03:17:22;;;;;;;;;;;3.40;99.90;;;;;;5054239;28;19932;-75
2022/03/11 03:19:48;;;;;;;;;;;3.40;99.90;;;;;;5036423;28;19925;-75
2022/03/11 03:22:15;;;;;;;;;;;3.40;99.90;;;;;;5037111;28;19935;-75
2022/03/11 03:24:42;;;;;;;;;;;3.30;99.90;;;;;;5053600;28;19925;-75
2022/03/11 03:27:09;;;;;;;;;;;3.30;99.90;;;;;;5053642;28;19994;-74
2022/03/11 03:29:35;;;;;;;;;;;3.30;99.90;;;;;;5035661;28;19929;-75
2022/03/11 03:32:02;;;;;;;;;;;3.20;99.90;;;;;;5049354;28;19928;-75
2022/03/11 03:34:29;;;;;;;;;;;3.20;99.90;;;;;;5036565;28;19929;-81
2022/03/11 03:36:55;;;;;;;;;;;3.10;99.90;;;;;;5035851;28;19986;-76
2022/03/11 03:39:22;;;;;;;;;;;3.10;99.90;;;;;;5040146;28;19925;-75
2022/03/11 03:41:48;;;;;;;;;;;3.20;99.90;;;;;;5053462;28;19924;-74
2022/03/11 03:44:15;;;;;;;;;;;3.10;99.90;;;;;;5053809;28;19929;-75
2022/03/11 03:46:41;;;;;;;;;;;3.20;99.90;;;;;;5052898;28;19929;-74
2022/03/11 03:49:08;;;;;;;;;;;3.10;99.90;;;;;;5053996;28;19925;-76
2022/03/11 03:51:35;;;;;;;;;;;3.10;99.90;;;;;;5035573;28;19928;-76
2022/03/11 03:54:01;;;;;;;;;;;3.00;99.90;;;;;;5035701;28;19995;-76
2022/03/11 03:56:28;;;;;;;;;;;3.10;99.90;;;;;;5053113;28;19924;-76
2022/03/11 03:58:54;;;;;;;;;;;3.00;99.90;;;;;;5044436;28;20004;-75
2022/03/11 04:01:21;;;;;;;;;;;3.00;99.90;;;;;;5035955;28;19931;-76
2022/03/11 04:03:47;;;;;;;;;;;3.00;99.90;;;;;;5035499;28;19925;-75
2022/03/11 04:06:14;;;;;;;;;;;3.00;99.90;;;;;;5035903;28;19932;-74
2022/03/11 04:08:40;;;;;;;;;;;3.00;99.90;;;;;;5052365;28;20436;-76
2022/03/11 04:11:07;;;;;;;;;;;3.00;99.90;;;;;;5052643;28;19925;-75
2022/03/11 04:13:33;;;;;;;;;;;3.00;99.90;;;;;;5052309;28;20364;-79
2022/03/11 04:16:00;;;;;;;;;;;3.00;99.90;;;;;;5035332;28;20402;-74
2022/03/11 04:18:27;;;;;;;;;;;3.00;99.90;;;;;;5035266;28;19932;-76
2022/03/11 04:20:53;;;;;;;;;;;2.90;99.90;;;;;;5052531;28;19921;-76
2022/03/11 04:23:20;;;;;;;;;;;2.90;99.90;;;;;;5053114;28;19931;-76
2022/03/11 04:25:46;;;;;;;;;;;2.90;99.90;;;;;;5034486;28;19925;-79
2022/03/11 04:28:13;;;;;;;;;;;2.90;99.90;;;;;;5052487;28;20406;-75
2022/03/11 04:30:47;;;;;;;;;;;2.90;99.90;;;;;;5106659;27;19942;-74
2022/03/11 04:33:14;;;;;;;;;;;2.90;99.90;;;;;;5103447;28;19963;-75
2022/03/11 04:35:40;;;;;;;;;;;2.90;99.90;;;;;;5096894;28;19924;-76
2022/03/11 04:38:09;;;;;;;;;;;2.90;99.90;;;;;;5102316;28;19928;-75
2022/03/11 04:40:35;;;;;;;;;;;2.90;99.90;;;;;;5101229;28;19928;-79
2022/03/11 04:43:02;;;;;;;;;;;2.90;99.90;;;;;;5096184;28;20002;-75
2022/03/11 04:45:29;;;;;;;;;;;2.80;99.90;;;;;;5105767;28;20302;-74
2022/03/11 04:47:55;;;;;;;;;;;2.80;99.90;;;;;;5105115;28;20110;-75
2022/03/11 04:50:22;;;;;;;;;;;2.80;99.90;;;;;;5108651;28;20018;-75
2022/03/11 04:52:48;;;;;;;;;;;2.70;99.90;;;;;;5106442;28;19927;-75
2022/03/11 04:55:16;;;;;;;;;;;2.70;99.90;;;;;;5102571;28;19924;-75
2022/03/11 04:57:42;;;;;;;;;;;2.60;99.90;;;;;;5090533;28;19967;-75
2022/03/11 05:00:09;;;;;;;;;;;2.60;99.90;;;;;;5094325;28;20002;-75
2022/03/11 05:02:35;;;;;;;;;;;2.60;99.90;;;;;;5099968;28;19934;-80
2022/03/11 05:05:02;;;;;;;;;;;2.60;99.90;;;;;;5107330;28;19923;-75
2022/03/11 05:07:29;;;;;;;;;;;2.50;99.90;;;;;;5107002;28;19951;-75
2022/03/11 05:09:55;;;;;;;;;;;2.50;99.90;;;;;;5094615;28;20023;-75
2022/03/11 05:12:22;;;;;;;;;;;2.50;99.90;;;;;;5103483;28;19930;-75
2022/03/11 05:14:48;;;;;;;;;;;2.50;99.90;;;;;;5095511;28;19928;-75
2022/03/11 05:17:16;;;;;;;;;;;2.50;99.90;;;;;;5095806;28;19930;-77
2022/03/11 05:19:43;;;;;;;;;;;2.40;99.90;;;;;;5094747;28;20028;-75
2022/03/11 05:22:10;;;;;;;;;;;2.40;99.90;;;;;;5100435;28;19924;-74
2022/03/11 05:24:37;;;;;;;;;;;2.40;99.90;;;;;;5104866;28;19931;-81
2022/03/11 05:27:04;;;;;;;;;;;2.40;99.90;;;;;;5092848;28;19932;-74
2022/03/11 05:29:31;;;;;;;;;;;2.40;99.90;;;;;;5100159;28;19924;-75
2022/03/11 05:31:58;;;;;;;;;;;2.40;99.90;;;;;;5101704;28;19949;-75
2022/03/11 05:34:25;;;;;;;;;;;2.40;99.90;;;;;;5096945;28;19931;-75
2022/03/11 05:36:51;;;;;;;;;;;2.30;99.90;;;;;;5118207;28;19931;-76
2022/03/11 05:39:18;;;;;;;;;;;2.30;99.90;;;;;;5100329;28;19924;-74
2022/03/11 05:41:46;;;;;;;;;;;2.30;99.90;;;;;;5082790;28;19924;-75
2022/03/11 05:44:12;;;;;;;;;;;2.20;99.90;;;;;;5081477;28;20011;-74
2022/03/11 05:46:40;;;;;;;;;;;2.20;99.90;;;;;;5090558;28;19931;-80
2022/03/11 05:49:06;;;;;;;;;;;2.10;99.90;;;;;;5083681;28;19925;-74
2022/03/11 05:51:33;;;;;;;;;;;2.00;99.90;;;;;;5081003;28;19924;-75
2022/03/11 05:53:59;;;;;;;;;;;2.10;99.90;;;;;;5093432;28;19931;-74
2022/03/11 05:56:26;;;;;;;;;;;2.10;99.90;;;;;;5089677;28;19931;-74
2022/03/11 05:58:53;;;;;;;;;;;2.10;99.90;;;;;;5094010;28;19924;-75
2022/03/11 06:01:19;;;;;;;;;;;2.20;99.90;;;;;;5082240;28;19928;-73
2022/03/11 06:03:46;;;;;;;;;;;2.20;99.90;;;;;;5087541;28;19978;-75
2022/03/11 06:06:13;;;;;;;;;;;2.10;99.90;;;;;;5078657;28;19978;-75
2022/03/11 06:08:40;;;;;;;;;;;2.10;99.90;;;;;;5089587;28;20033;-80
2022/03/11 06:11:07;;;;;;;;;;;2.20;99.90;;;;;;5093740;28;20019;-75
2022/03/11 06:13:33;;;;;;;;;;;2.10;99.90;;;;;;5092569;28;19924;-75
2022/03/11 06:16:00;;;;;;;;;;;2.10;99.90;;;;;;5092847;28;20697;-76
2022/03/11 06:18:26;;;;;;;;;;;2.10;99.90;;;;;;5080768;28;20356;-77
2022/03/11 06:20:53;;;;;;;;;;;2.20;99.90;;;;;;5071651;28;19925;-76
2022/03/11 06:23:20;;;;;;;;;;;2.20;99.90;;;;;;5072731;28;19987;-77
2022/03/11 06:25:46;;;;;;;;;;;2.20;99.90;;;;;;5075010;28;19932;-77
2022/03/11 06:28:13;;;;;;;;;;;2.20;99.90;;;;;;5072905;28;19924;-77
2022/03/11 06:30:39;;;;;;;;;;;2.20;99.90;;;;;;5072517;28;19934;-77
2022/03/11 06:33:06;;;;;;;;;;;2.30;99.90;;;;;;5072204;28;20390;-78
2022/03/11 06:35:33;;;;;;;;;;;2.40;99.90;;;;;;5072073;28;19925;-76
2022/03/11 06:37:59;;;;;;;;;;;2.50;99.90;;;;;;5075449;28;19935;-76
2022/03/11 06:40:26;;;;;;;;;;;2.50;99.90;;;;;;5072118;28;19932;-77
2022/03/11 06:42:53;;;;;;;;;;;2.70;99.90;;;;;;5074264;28;19939;-77
2022/03/11 06:45:20;;;;;;;;;;;2.80;99.90;;;;;;5071754;28;20011;-81
2022/03/11 06:47:47;;;;;;;;;;;2.90;99.90;;;;;;5075450;28;19932;-77
2022/03/11 06:50:13;;;;;;;;;;;3.00;99.90;;;;;;5073272;28;19924;-76
2022/03/11 06:52:40;;;;;;;;;;;3.10;99.90;;;;;;5072851;28;19932;-78
2022/03/11 06:55:06;;;;;;;;;;;3.20;99.90;;;;;;5087661;28;19933;-79
2022/03/11 06:57:34;;;;;;;;;;;3.40;99.90;;;;;;5075870;28;19924;-78
2022/03/11 07:00:00;;;;;;;;;;;3.50;99.90;;;;;;5072619;28;20414;-78
2022/03/11 07:02:27;;;;;;;;;;;3.60;99.90;;;;;;5075950;28;19924;-77
2022/03/11 07:04:53;;;;;;;;;;;3.80;99.90;;;;;;5072955;28;20008;-79
2022/03/11 07:07:20;;;;;;;;;;;3.90;99.90;;;;;;5075348;28;19924;-78
2022/03/11 07:09:46;;;;;;;;;;;3.90;99.90;;;;;;5076241;28;19935;-83
2022/03/11 07:12:13;;;;;;;;;;;4.10;99.90;;;;;;5071010;28;20018;-77
2022/03/11 07:14:41;;;;;;;;;;;4.10;99.90;;;;;;5078087;28;19932;-77
2022/03/11 07:17:08;;;;;;;;;;;4.20;99.90;;;;;;5073972;28;19928;-78
2022/03/11 07:19:34;;;;;;;;;;;4.20;99.90;;;;;;5073093;28;19978;-78
2022/03/11 07:22:01;;;;;;;;;;;4.30;99.90;;;;;;5074610;28;19932;-78
2022/03/11 07:24:28;;;;;;;;;;;4.40;99.90;;;;;;5072623;28;19924;-78
2022/03/11 07:26:54;;;;;;;;;;;4.40;99.90;;;;;;5070184;28;19924;-76
2022/03/11 07:29:21;;;;;;;;;;;4.60;99.90;;;;;;5073323;28;19931;-78
2022/03/11 07:31:47;;;;;;;;;;;4.70;99.90;;;;;;5071059;28;19932;-81
2022/03/11 07:34:14;;;;;;;;;;;4.80;99.90;;;;;;5089068;28;19924;-77
2022/03/11 07:36:40;;;;;;;;;;;4.70;99.90;;;;;;5074005;28;20028;-78
2022/03/11 07:39:07;;;;;;;;;;;4.80;99.90;;;;;;5076978;28;19930;-78
2022/03/11 07:41:33;;;;;;;;;;;5.00;99.90;;;;;;5074164;28;19924;-76
2022/03/11 07:44:00;;;;;;;;;;;5.10;99.90;;;;;;5074857;28;20395;-77
2022/03/11 07:46:27;;;;;;;;;;;5.00;99.80;;;;;;5076160;28;20381;-77
2022/03/11 07:48:54;;;;;;;;;;;5.10;99.50;;;;;;5072131;28;20011;-77
2022/03/11 07:51:20;;;;;;;;;;;5.10;99.50;;;;;;5076785;28;19924;-79
2022/03/11 07:53:47;;;;;;;;;;;5.20;99.10;;;;;;5071047;28;19931;-77
2022/03/11 07:56:14;;;;;;;;;;;5.20;99.50;;;;;;5074180;28;19974;-78
2022/03/11 07:58:41;;;;;;;;;;;5.30;98.70;;;;;;5088802;28;19928;-78
2022/03/11 08:01:08;;;;;;;;;;;5.40;99.00;;;;;;5077434;28;19924;-77
2022/03/11 08:03:34;;;;;;;;;;;5.60;98.90;;;;;;5074706;28;20383;-77
2022/03/11 08:06:01;;;;;;;;;;;5.60;98.10;;;;;;5074190;28;19947;-79
2022/03/11 08:08:28;;;;;;;;;;;5.70;98.10;;;;;;5071789;28;19974;-76
2022/03/11 08:10:55;;;;;;;;;;;5.80;97.90;;;;;;5073795;28;19924;-78
2022/03/11 08:13:21;;;;;;;;;;;5.90;97.80;;;;;;5072671;28;19924;-79
2022/03/11 08:15:48;;;;;;;;;;;6.00;97.50;;;;;;5072305;28;19932;-80
2022/03/11 08:18:14;;;;;;;;;;;6.00;97.10;;;;;;5071020;28;19924;-79
2022/03/11 08:20:41;;;;;;;;;;;6.10;97.00;;;;;;5072376;28;19924;-79
2022/03/11 08:23:08;;;;;;;;;;;6.00;97.10;;;;;;5073504;28;20007;-78
2022/03/11 08:25:34;;;;;;;;;;;6.10;96.60;;;;;;5071805;28;20628;-78
2022/03/11 08:28:01;;;;;;;;;;;6.20;96.30;;;;;;5071564;28;20414;-78
2022/03/11 08:30:27;;;;;;;;;;;6.30;96.20;;;;;;5070294;28;19931;-77
2022/03/11 08:32:55;;;;;;;;;;;6.40;95.90;;;;;;5073919;28;19925;-79
2022/03/11 08:35:22;;;;;;;;;;;6.40;95.70;;;;;;5074135;28;20007;-81
2022/03/11 08:37:48;;;;;;;;;;;6.50;96.50;;;;;;5074607;28;19924;-78
2022/03/11 08:40:15;;;;;;;;;;;6.60;96.10;;;;;;5073055;28;19928;-77
2022/03/11 08:42:41;;;;;;;;;;;6.70;95.40;;;;;;5075126;28;20147;-78
2022/03/11 08:45:08;;;;;;;;;;;6.80;95.10;;;;;;5071311;28;19960;-80
2022/03/11 08:47:35;;;;;;;;;;;6.70;95.00;;;;;;5071811;28;21204;-78
2022/03/11 08:50:02;;;;;;;;;;;6.70;95.30;;;;;;5070652;28;19924;-79
2022/03/11 08:52:29;;;;;;;;;;;6.80;95.00;;;;;;5078898;28;19924;-80
2022/03/11 08:54:55;;;;;;;;;;;6.70;94.10;;;;;;5073930;28;19931;-83
2022/03/11 08:57:22;;;;;;;;;;;7.00;94.30;;;;;;5075949;28;19928;-79
2022/03/11 08:59:49;;;;;;;;;;;6.90;94.10;;;;;;5079510;28;19990;-78
2022/03/11 09:02:16;;;;;;;;;;;7.00;93.60;;;;;;5096229;28;19986;-79
2022/03/11 09:04:43;;;;;;;;;;;7.10;93.60;;;;;;5076509;28;20454;-79
2022/03/11 09:07:10;;;;;;;;;;;7.20;94.00;;;;;;5094606;28;20013;-78
2022/03/11 09:09:37;;;;;;;;;;;7.40;93.00;;;;;;5091065;28;19977;-78
2022/03/11 09:12:04;;;;;;;;;;;7.30;92.70;;;;;;5075779;28;19932;-78
2022/03/11 09:14:30;;;;;;;;;;;7.30;92.30;;;;;;5084394;28;19932;-80
2022/03/11 09:16:57;;;;;;;;;;;7.30;92.40;;;;;;5086928;28;19935;-83
2022/03/11 09:19:23;;;;;;;;;;;7.50;91.70;;;;;;5086127;28;20818;-78
2022/03/11 09:21:50;;;;;;;;;;;7.40;91.80;;;;;;5073784;28;19935;-79
2022/03/11 09:24:17;;;;;;;;;;;7.40;91.80;;;;;;5074211;28;19920;-78
2022/03/11 09:26:45;;;;;;;;;;;7.40;91.00;;;;;;5075333;28;19929;-79
2022/03/11 09:29:12;;;;;;;;;;;7.40;91.50;;;;;;5074746;28;19924;-79
2022/03/11 09:31:38;;;;;;;;;;;7.50;90.70;;;;;;5080746;28;19950;-79
2022/03/11 09:34:05;;;;;;;;;;;7.60;90.60;;;;;;5099495;28;19931;-78
2022/03/11 09:36:31;;;;;;;;;;;7.50;89.70;;;;;;5078161;28;19935;-78
2022/03/11 09:38:58;;;;;;;;;;;7.70;88.30;;;;;;5076984;28;19928;-83
2022/03/11 09:41:24;;;;;;;;;;;7.70;88.80;;;;;;5074356;28;19929;-79
2022/03/11 09:43:51;;;;;;;;;;;7.70;88.10;;;;;;5073761;28;19939;-79
2022/03/11 09:46:18;;;;;;;;;;;7.70;88.10;;;;;;5083593;28;19936;-78
2022/03/11 09:48:44;;;;;;;;;;;7.60;87.10;;;;;;5083761;28;19929;-80
2022/03/11 09:51:11;;;;;;;;;;;7.80;86.50;;;;;;5087724;28;20306;-78
2022/03/11 09:53:38;;;;;;;;;;;7.90;86.60;;;;;;5085090;28;19982;-78
2022/03/11 09:56:04;;;;;;;;;;;8.00;85.50;;;;;;5087018;28;19924;-79
2022/03/11 09:58:31;;;;;;;;;;;7.90;87.10;;;;;;5085297;28;19929;-77
2022/03/11 10:00:57;;;;;;;;;;;8.00;82.50;;;;;;5092592;28;20015;-78
2022/03/11 10:03:24;;;;;;;;;;;8.00;82.20;;;;;;5090185;28;20386;-78
2022/03/11 10:05:50;;;;;;;;;;;8.10;83.00;;;;;;5091428;28;19939;-77
2022/03/11 10:08:17;;;;;;;;;;;8.10;81.20;;;;;;5085037;28;19924;-78
2022/03/11 10:10:44;;;;;;;;;;;8.20;81.90;;;;;;5089744;28;19931;-75
2022/03/11 10:13:10;;;;;;;;;;;8.40;80.90;;;;;;5088597;28;19932;-77
2022/03/11 10:15:37;;;;;;;;;;;8.40;80.10;;;;;;5088609;28;19931;-76
2022/03/11 10:18:03;;;;;;;;;;;8.30;78.90;;;;;;5084618;28;19928;-77
2022/03/11 10:20:30;;;;;;;;;;;8.40;79.80;;;;;;5071578;28;19929;-77
2022/03/11 10:22:57;;;;;;;;;;;8.50;79.50;;;;;;5074382;28;19932;-77
2022/03/11 10:25:25;;;;;;;;;;;8.60;78.00;;;;;;5074390;28;20378;-78
2022/03/11 10:27:51;;;;;;;;;;;8.60;77.90;;;;;;5073144;28;19935;-77
2022/03/11 10:30:18;;;;;;;;;;;8.60;76.00;;;;;;5096761;28;19935;-77
2022/03/11 10:32:44;;;;;;;;;;;8.70;76.40;;;;;;5082641;28;19964;-77
2022/03/11 10:35:12;;;;;;;;;;;8.80;77.50;;;;;;5084223;28;20024;-77
2022/03/11 10:37:39;;;;;;;;;;;9.00;75.30;;;;;;5077521;28;19928;-78
2022/03/11 10:40:05;;;;;;;;;;;8.90;74.00;;;;;;5085066;28;19932;-77
2022/03/11 10:42:32;;;;;;;;;;;8.80;73.80;;;;;;5081731;28;19928;-79
2022/03/11 10:44:59;;;;;;;;;;;8.70;73.20;;;;;;5078184;28;19928;-77
2022/03/11 10:47:25;;;;;;;;;;;8.70;73.50;;;;;;5080522;28;19966;-77
2022/03/11 10:49:52;;;;;;;;;;;8.80;74.60;;;;;;5087080;28;19924;-77
2022/03/11 10:52:18;;;;;;;;;;;8.80;72.30;;;;;;5089289;28;19928;-78
2022/03/11 10:54:45;;;;;;;;;;;9.00;71.50;;;;;;5079399;28;20401;-77
2022/03/11 10:57:12;;;;;;;;;;;8.90;70.60;;;;;;5085245;28;19931;-78
2022/03/11 10:59:39;;;;;;;;;;;9.00;70.80;;;;;;5084367;28;20011;-78
2022/03/11 11:02:05;;;;;;;;;;;9.00;71.70;;;;;;5081784;28;19936;-79
2022/03/11 11:04:32;;;;;;;;;;;9.10;71.80;;;;;;5085721;28;19928;-78
2022/03/11 11:06:58;;;;;;;;;;;9.20;71.70;;;;;;5081093;28;19932;-77
2022/03/11 11:09:26;;;;;;;;;;;9.20;70.30;;;;;;5085701;28;19924;-77
2022/03/11 11:11:52;;;;;;;;;;;9.30;71.00;;;;;;5083997;28;19928;-78
2022/03/11 11:14:19;;;;;;;;;;;9.40;70.00;;;;;;5083954;28;19999;-77
2022/03/11 11:16:46;;;;;;;;;;;9.40;69.80;;;;;;5083352;28;20102;-77
2022/03/11 11:19:12;;;;;;;;;;;9.50;68.10;;;;;;5082336;28;19968;-77
2022/03/11 11:21:39;;;;;;;;;;;9.30;66.40;;;;;;5079758;28;19935;-82
2022/03/11 11:24:05;;;;;;;;;;;9.50;68.20;;;;;;5079807;28;19935;-82
2022/03/11 11:26:32;;;;;;;;;;;9.50;68.80;;;;;;5069490;28;19932;-77
2022/03/11 11:28:58;;;;;;;;;;;9.60;67.60;;;;;;5070373;28;19935;-76
2022/03/11 11:31:25;;;;;;;;;;;9.60;68.80;;;;;;5071025;28;20383;-82
2022/03/11 11:33:52;;;;;;;;;;;9.70;69.00;;;;;;5092083;28;20375;-77
2022/03/11 11:36:18;;;;;;;;;;;9.80;67.20;;;;;;5074628;28;19924;-77
2022/03/11 11:38:46;;;;;;;;;;;9.70;66.30;;;;;;5072668;28;19931;-77
2022/03/11 11:41:12;;;;;;;;;;;9.80;66.70;;;;;;5072848;28;19925;-77
2022/03/11 11:43:39;;;;;;;;;;;9.80;65.90;;;;;;5076456;28;19931;-77
2022/03/11 11:46:05;;;;;;;;;;;10.00;65.10;;;;;;5072921;28;19939;-79
2022/03/11 11:48:32;;;;;;;;;;;9.90;65.20;;;;;;5075049;28;20027;-77
2022/03/11 11:50:58;;;;;;;;;;;9.90;64.20;;;;;;5081159;28;19949;-77
2022/03/11 11:53:25;;;;;;;;;;;9.90;64.50;;;;;;5073148;28;20484;-77
2022/03/11 11:55:53;;;;;;;;;;;9.90;63.20;;;;;;5075234;28;19935;-77
2022/03/11 11:58:20;;;;;;;;;;;10.00;63.50;;;;;;5072822;28;19994;-77
2022/03/11 12:00:46;;;;;;;;;;;10.00;64.20;;;;;;5074350;28;19930;-78
2022/03/11 12:03:14;;;;;;;;;;;10.00;64.90;;;;;;5070399;28;19925;-78
2022/03/11 12:05:41;;;;;;;;;;;10.20;64.30;;;;;;5072781;28;19924;-78
2022/03/11 12:08:07;;;;;;;;;;;10.20;63.60;;;;;;5076365;28;19931;-84
2022/03/11 12:10:34;;;;;;;;;;;10.20;62.00;;;;;;5074831;28;19970;-81
2022/03/11 12:13:01;;;;;;;;;;;10.30;62.30;;;;;;5080925;28;20367;-77
2022/03/11 12:15:27;;;;;;;;;;;10.40;60.50;;;;;;5071795;28;19931;-76
2022/03/11 12:17:58;;;;;;;;;;;10.40;62.60;;;;;;5094852;28;20397;-78
2022/03/11 12:20:25;;;;;;;;;;;10.20;62.20;;;;;;5072730;28;19924;-77
2022/03/11 12:22:53;;;;;;;;;;;10.40;61.90;;;;;;5073951;28;19978;-78
2022/03/11 12:25:19;;;;;;;;;;;10.30;59.60;;;;;;5083516;28;19985;-78
2022/03/11 12:27:46;;;;;;;;;;;10.30;59.90;;;;;;5086114;28;19946;-78
2022/03/11 12:30:12;;;;;;;;;;;10.40;59.30;;;;;;5077055;28;19924;-79
2022/03/11 12:32:39;;;;;;;;;;;10.40;60.10;;;;;;5070595;28;19924;-80
2022/03/11 12:35:06;;;;;;;;;;;10.50;58.90;;;;;;5076900;28;20732;-78
2022/03/11 12:37:32;;;;;;;;;;;10.60;59.60;;;;;;5079933;28;19929;-78
2022/03/11 12:40:01;;;;;;;;;;;10.60;59.40;;;;;;5077158;28;19928;-79
2022/03/11 12:42:27;;;;;;;;;;;10.70;59.80;;;;;;5078027;28;20401;-79
2022/03/11 12:44:54;;;;;;;;;;;10.70;58.40;;;;;;5072083;28;21068;-79
2022/03/11 12:47:20;;;;;;;;;;;10.80;58.20;;;;;;5070183;28;19928;-78
2022/03/11 12:49:47;;;;;;;;;;;10.80;56.30;;;;;;5072812;28;19924;-80
2022/03/11 12:52:13;;;;;;;;;;;10.90;56.20;;;;;;5098597;28;19931;-81
2022/03/11 12:54:40;;;;;;;;;;;10.90;57.00;;;;;;5079369;28;19925;-79
2022/03/11 12:57:06;;;;;;;;;;;11.00;56.60;;;;;;5083956;28;19929;-79
2022/03/11 12:59:33;;;;;;;;;;;11.00;54.60;;;;;;5075290;28;20003;-79
2022/03/11 13:01:59;;;;;;;;;;;11.00;56.50;;;;;;5085214;28;19932;-79
2022/03/11 13:04:26;;;;;;;;;;;11.00;56.50;;;;;;5083252;28;19928;-78
2022/03/11 13:06:53;;;;;;;;;;;11.10;55.70;;;;;;5085133;28;19939;-78
2022/03/11 13:09:20;;;;;;;;;;;11.20;54.00;;;;;;5085211;28;19986;-79
2022/03/11 13:11:46;;;;;;;;;;;11.20;53.90;;;;;;5072212;28;19929;-78
2022/03/11 13:14:13;;;;;;;;;;;11.20;53.10;;;;;;5081758;28;19932;-85
2022/03/11 13:16:39;;;;;;;;;;;11.30;53.10;;;;;;5080845;28;19930;-79
2022/03/11 13:19:06;;;;;;;;;;;11.30;53.30;;;;;;5085789;28;20006;-79
2022/03/11 13:21:33;;;;;;;;;;;11.30;51.20;;;;;;5074872;28;19932;-78
2022/03/11 13:24:00;;;;;;;;;;;11.30;53.00;;;;;;5076447;28;20555;-84
2022/03/11 13:26:26;;;;;;;;;;;11.30;51.80;;;;;;5085378;28;19946;-81
2022/03/11 13:28:53;;;;;;;;;;;11.40;51.20;;;;;;5087038;28;19928;-78
2022/03/11 13:31:20;;;;;;;;;;;11.50;51.60;;;;;;5084622;28;19924;-78
2022/03/11 13:33:46;;;;;;;;;;;11.40;50.50;;;;;;5083840;28;19932;-78
2022/03/11 13:36:13;;;;;;;;;;;11.50;50.10;;;;;;5087635;28;19939;-83
2022/03/11 13:38:39;;;;;;;;;;;11.60;50.00;;;;;;5078949;28;20397;-78
2022/03/11 13:41:06;;;;;;;;;;;11.50;49.50;;;;;;5072929;28;19968;-80
2022/03/11 13:43:33;;;;;;;;;;;11.50;49.20;;;;;;5069668;28;19928;-78
2022/03/11 13:45:59;;;;;;;;;;;11.50;48.90;;;;;;5074322;28;19928;-79
2022/03/11 13:48:26;;;;;;;;;;;11.50;49.50;;;;;;5071700;28;19935;-78
2022/03/11 13:50:52;;;;;;;;;;;11.50;48.40;;;;;;5072831;28;19962;-79
2022/03/11 13:53:19;;;;;;;;;;;11.50;49.20;;;;;;5083824;28;19931;-78
2022/03/11 13:55:45;;;;;;;;;;;11.50;50.00;;;;;;5088445;28;19935;-78
2022/03/11 13:58:12;;;;;;;;;;;11.50;49.70;;;;;;5086385;28;19928;-78
2022/03/11 14:00:38;;;;;;;;;;;11.60;47.50;;;;;;5083460;28;19929;-78
2022/03/11 14:03:05;;;;;;;;;;;11.60;49.60;;;;;;5077163;28;19928;-79
2022/03/11 14:05:32;;;;;;;;;;;11.70;48.40;;;;;;5076051;28;19928;-79
2022/03/11 14:08:00;;;;;;;;;;;11.70;48.70;;;;;;5082257;28;19924;-79
2022/03/11 14:10:28;;;;;;;;;;;11.70;48.80;;;;;;5079536;28;19924;-78
2022/03/11 14:12:54;;;;;;;;;;;11.70;47.10;;;;;;5076528;28;19934;-78
2022/03/11 14:15:21;;;;;;;;;;;11.80;46.60;;;;;;5075070;28;20295;-83
2022/03/11 14:17:47;;;;;;;;;;;11.70;46.50;;;;;;5081027;28;20277;-79
2022/03/11 14:20:14;;;;;;;;;;;11.70;47.20;;;;;;5080441;28;19930;-79
2022/03/11 14:22:40;;;;;;;;;;;11.60;47.10;;;;;;5077304;28;19928;-79
2022/03/11 14:25:07;;;;;;;;;;;11.60;47.30;;;;;;5082800;28;20007;-80